createdAt,value
2023-01-08T00:00:30.806Z,2.96
2023-01-08T00:01:32.708Z,2.96
2023-01-08T00:02:34.529Z,2.99
2023-01-08T00:03:37.064Z,2.97
2023-01-08T00:04:38.974Z,2.93
2023-01-08T00:05:41.000Z,2.92
2023-01-08T00:06:42.861Z,2.92
2023-01-08T00:07:44.693Z,2.91
2023-01-08T00:08:46.442Z,2.95
2023-01-08T00:09:50.778Z,2.96
2023-01-08T00:10:56.182Z,2.96
2023-01-08T00:11:58.069Z,2.99
2023-01-08T00:12:59.960Z,3.01
2023-01-08T00:14:01.786Z,3.04
2023-01-08T00:15:04.158Z,3.07
2023-01-08T00:16:07.040Z,3.06
2023-01-08T00:17:09.015Z,2.97
2023-01-08T00:18:10.806Z,2.89
2023-01-08T00:19:13.420Z,2.86
2023-01-08T00:20:15.301Z,2.82
2023-01-08T00:21:17.177Z,2.84
2023-01-08T00:22:19.067Z,2.86
2023-01-08T00:23:20.895Z,2.79
2023-01-08T00:24:22.794Z,2.78
2023-01-08T00:25:24.631Z,2.78
2023-01-08T00:26:26.517Z,2.82
2023-01-08T00:27:28.383Z,2.80
2023-01-08T00:28:30.301Z,2.76
2023-01-08T00:29:32.112Z,2.75
2023-01-08T00:30:34.141Z,2.74
2023-01-08T00:31:35.969Z,2.75
2023-01-08T00:32:37.995Z,2.78
2023-01-08T00:33:40.536Z,2.83
2023-01-08T00:34:42.299Z,2.78
2023-01-08T00:35:44.123Z,2.73
2023-01-08T00:36:45.880Z,2.69
2023-01-08T00:37:49.723Z,2.73
2023-01-08T00:38:51.544Z,2.71
2023-01-08T00:39:53.398Z,2.70
2023-01-08T00:40:55.435Z,2.66
2023-01-08T00:41:57.255Z,2.66
2023-01-08T00:42:59.130Z,2.70
2023-01-08T00:44:00.973Z,2.72
2023-01-08T00:45:02.732Z,2.70
2023-01-08T00:46:04.872Z,2.72
2023-01-08T00:47:06.894Z,2.74
2023-01-08T00:48:08.751Z,2.76
2023-01-08T00:49:10.566Z,2.78
2023-01-08T00:50:12.428Z,2.77
2023-01-08T00:51:14.223Z,2.77
2023-01-08T00:52:16.043Z,2.82
2023-01-08T00:53:18.322Z,2.79
2023-01-08T00:54:20.134Z,2.74
2023-01-08T00:55:22.043Z,2.70
2023-01-08T00:56:23.868Z,2.60
2023-01-08T00:57:25.652Z,2.58
2023-01-08T00:58:27.595Z,2.59
2023-01-08T00:59:29.481Z,2.67
2023-01-08T01:00:31.223Z,2.74
2023-01-08T01:01:33.183Z,2.74
2023-01-08T01:02:36.957Z,2.76
2023-01-08T01:03:39.044Z,2.72
2023-01-08T01:04:40.883Z,2.65
2023-01-08T01:05:42.743Z,2.66
2023-01-08T01:06:45.276Z,2.70
2023-01-08T01:07:49.425Z,2.72
2023-01-08T01:08:51.387Z,2.73
2023-01-08T01:09:53.208Z,2.68
2023-01-08T01:10:55.013Z,2.70
2023-01-08T01:11:56.851Z,2.69
2023-01-08T01:12:58.645Z,2.69
2023-01-08T01:14:00.474Z,2.65
2023-01-08T01:15:02.322Z,2.65
2023-01-08T01:16:04.746Z,2.64
2023-01-08T01:17:06.623Z,2.60
2023-01-08T01:18:08.768Z,2.60
2023-01-08T01:19:10.848Z,2.58
2023-01-08T01:20:16.511Z,2.60
2023-01-08T01:21:21.419Z,2.60
2023-01-08T01:22:23.219Z,2.56
2023-01-08T01:23:25.029Z,2.56
2023-01-08T01:24:28.124Z,2.58
2023-01-08T01:25:29.901Z,2.60
2023-01-08T01:26:32.579Z,2.66
2023-01-08T01:27:34.400Z,2.66
2023-01-08T01:28:36.263Z,2.68
2023-01-08T01:29:38.068Z,2.69
2023-01-08T01:30:39.901Z,2.64
2023-01-08T01:31:41.832Z,2.55
2023-01-08T01:32:43.613Z,2.54
2023-01-08T01:33:45.707Z,2.58
2023-01-08T01:34:47.455Z,2.58
2023-01-08T01:35:49.299Z,2.58
2023-01-08T01:36:51.197Z,2.55
2023-01-08T01:37:52.974Z,2.58
2023-01-08T01:38:56.146Z,2.63
2023-01-08T01:39:58.440Z,2.70
2023-01-08T01:41:00.344Z,2.76
2023-01-08T01:42:02.238Z,2.78
2023-01-08T01:43:04.087Z,2.76
2023-01-08T01:44:24.444Z,2.77
2023-01-08T01:45:28.012Z,2.75
2023-01-08T01:46:32.526Z,2.67
2023-01-08T01:47:38.603Z,2.62
2023-01-08T01:48:40.370Z,2.66
2023-01-08T01:49:44.393Z,2.62
2023-01-08T01:50:47.557Z,2.58
2023-01-08T01:51:51.300Z,2.62
2023-01-08T01:53:05.732Z,2.66
2023-01-08T01:54:09.176Z,2.64
2023-01-08T01:55:14.719Z,2.65
2023-01-08T01:56:16.621Z,2.63
2023-01-08T01:57:18.779Z,2.65
2023-01-08T01:58:24.955Z,2.58
2023-01-08T01:59:26.873Z,2.58
2023-01-08T02:00:29.396Z,2.51
2023-01-08T02:01:32.167Z,2.51
2023-01-08T02:02:34.276Z,2.47
2023-01-08T02:03:37.938Z,2.41
2023-01-08T02:04:39.754Z,2.37
2023-01-08T02:05:47.420Z,2.37
2023-01-08T02:06:54.885Z,2.36
2023-01-08T02:08:02.089Z,2.28
2023-01-08T02:09:22.251Z,2.32
2023-01-08T02:10:37.563Z,2.31
2023-01-08T02:12:16.899Z,2.36
2023-01-08T02:13:23.301Z,2.36
2023-01-08T02:14:35.013Z,2.32
2023-01-08T02:15:52.008Z,2.34
2023-01-08T02:16:57.513Z,2.35
2023-01-08T02:18:10.096Z,2.37
2023-01-08T02:19:20.411Z,2.33
2023-01-08T02:20:29.875Z,2.32
2023-01-08T02:21:31.610Z,2.32
2023-01-08T02:22:33.423Z,2.29
2023-01-08T02:23:56.609Z,2.28
2023-01-08T02:25:01.509Z,2.28
2023-01-08T02:26:06.764Z,2.31
2023-01-08T02:27:09.319Z,2.35
2023-01-08T02:28:12.058Z,2.34
2023-01-08T02:29:19.292Z,2.32
2023-01-08T02:30:21.346Z,2.35
2023-01-08T02:31:24.740Z,2.37
2023-01-08T02:32:27.365Z,2.41
2023-01-08T02:33:30.021Z,2.44
2023-01-08T02:34:32.984Z,2.41
2023-01-08T02:35:40.753Z,2.32
2023-01-08T02:36:42.655Z,2.31
2023-01-08T02:37:44.575Z,2.32
2023-01-08T02:39:17.194Z,2.32
2023-01-08T02:40:27.734Z,2.32
2023-01-08T02:41:39.068Z,2.30
2023-01-08T02:42:43.703Z,2.28
2023-01-08T02:43:50.453Z,2.30
2023-01-08T02:44:56.079Z,2.34
2023-01-08T02:46:01.456Z,2.38
2023-01-08T02:47:06.225Z,2.38
2023-01-08T02:48:11.309Z,2.39
2023-01-08T02:49:14.190Z,2.40
2023-01-08T02:50:26.793Z,2.38
2023-01-08T02:51:31.059Z,2.36
2023-01-08T02:52:35.195Z,2.34
2023-01-08T02:53:40.005Z,2.31
2023-01-08T02:54:43.402Z,2.27
2023-01-08T02:55:47.915Z,2.27
2023-01-08T02:56:52.434Z,2.24
2023-01-08T02:57:54.335Z,2.20
2023-01-08T02:58:57.487Z,2.20
2023-01-08T02:59:59.299Z,2.21
2023-01-08T03:01:05.046Z,2.24
2023-01-08T03:02:07.764Z,2.31
2023-01-08T03:03:12.769Z,2.36
2023-01-08T03:04:16.796Z,2.30
2023-01-08T03:05:24.269Z,2.30
2023-01-08T03:06:27.939Z,2.32
2023-01-08T03:07:29.919Z,2.36
2023-01-08T03:08:34.314Z,2.41
2023-01-08T03:09:37.545Z,2.34
2023-01-08T03:10:41.773Z,2.38
2023-01-08T03:11:59.829Z,2.41
2023-01-08T03:13:11.950Z,2.38
2023-01-08T03:14:13.647Z,2.38
2023-01-08T03:15:19.979Z,2.38
2023-01-08T03:16:26.510Z,2.43
2023-01-08T03:17:32.941Z,2.45
2023-01-08T03:18:37.646Z,2.44
2023-01-08T03:19:44.877Z,2.45
2023-01-08T03:20:49.011Z,2.44
2023-01-08T03:21:51.803Z,2.47
2023-01-08T03:22:56.303Z,2.45
2023-01-08T03:23:58.179Z,2.45
2023-01-08T03:25:00.304Z,2.45
2023-01-08T03:26:04.086Z,2.47
2023-01-08T03:27:09.936Z,2.50
2023-01-08T03:28:23.396Z,2.48
2023-01-08T03:29:26.337Z,2.50
2023-01-08T03:30:29.693Z,2.52
2023-01-08T03:31:34.859Z,2.57
2023-01-08T03:32:37.264Z,2.63
2023-01-08T03:33:39.322Z,2.64
2023-01-08T03:34:42.452Z,2.69
2023-01-08T03:35:45.444Z,2.74
2023-01-08T03:36:48.800Z,2.79
2023-01-08T03:38:03.873Z,2.84
2023-01-08T03:39:08.420Z,2.88
2023-01-08T03:40:14.180Z,2.93
2023-01-08T03:41:19.411Z,2.96
2023-01-08T03:42:21.887Z,2.98
2023-01-08T03:43:23.872Z,3.00
2023-01-08T03:44:25.909Z,2.98
2023-01-08T03:45:30.496Z,2.97
2023-01-08T03:46:33.662Z,2.97
2023-01-08T03:47:36.788Z,2.98
2023-01-08T03:48:39.242Z,3.01
2023-01-08T03:49:43.308Z,3.00
2023-01-08T03:50:45.267Z,3.02
2023-01-08T03:51:47.980Z,3.01
2023-01-08T03:52:49.780Z,3.02
2023-01-08T03:53:53.748Z,3.02
2023-01-08T03:54:55.626Z,3.02
2023-01-08T03:55:57.976Z,3.03
2023-01-08T03:56:59.888Z,3.04
2023-01-08T03:58:01.820Z,3.03
2023-01-08T03:59:03.672Z,2.95
2023-01-08T04:00:06.312Z,2.88
2023-01-08T04:01:08.246Z,2.90
2023-01-08T04:02:10.414Z,2.93
2023-01-08T04:03:12.353Z,2.96
2023-01-08T04:04:14.388Z,2.99
2023-01-08T04:05:16.271Z,2.99
2023-01-08T04:06:18.060Z,2.99
2023-01-08T04:07:19.913Z,3.02
2023-01-08T04:08:21.758Z,3.02
2023-01-08T04:09:23.937Z,3.01
2023-01-08T04:10:25.941Z,2.97
2023-01-08T04:11:27.884Z,2.95
2023-01-08T04:12:29.819Z,2.95
2023-01-08T04:13:31.644Z,2.96
2023-01-08T04:14:33.498Z,2.96
2023-01-08T04:15:35.342Z,2.94
2023-01-08T04:16:37.163Z,2.93
2023-01-08T04:17:39.127Z,2.87
2023-01-08T04:18:40.956Z,2.79
2023-01-08T04:19:42.803Z,2.75
2023-01-08T04:20:48.561Z,2.76
2023-01-08T04:21:51.871Z,2.76
2023-01-08T04:22:53.659Z,2.80
2023-01-08T04:23:56.075Z,2.81
2023-01-08T04:24:58.004Z,2.81
2023-01-08T04:25:59.847Z,2.81
2023-01-08T04:27:01.808Z,2.78
2023-01-08T04:28:03.717Z,2.81
2023-01-08T04:29:05.646Z,2.85
2023-01-08T04:30:07.888Z,2.89
2023-01-08T04:31:10.047Z,2.88
2023-01-08T04:32:12.004Z,2.87
2023-01-08T04:33:14.125Z,2.83
2023-01-08T04:34:15.941Z,2.86
2023-01-08T04:35:17.753Z,2.79
2023-01-08T04:36:19.630Z,2.82
2023-01-08T04:37:21.595Z,2.85
2023-01-08T04:38:23.684Z,2.86
2023-01-08T04:39:25.531Z,2.87
2023-01-08T04:40:27.509Z,2.86
2023-01-08T04:41:29.352Z,2.89
2023-01-08T04:42:31.183Z,2.92
2023-01-08T04:43:33.326Z,2.94
2023-01-08T04:44:35.138Z,2.95
2023-01-08T04:45:36.902Z,2.97
2023-01-08T04:46:38.817Z,2.94
2023-01-08T04:47:40.695Z,2.95
2023-01-08T04:48:42.501Z,2.98
2023-01-08T04:49:44.333Z,3.01
2023-01-08T04:50:46.126Z,2.99
2023-01-08T04:51:47.993Z,2.97
2023-01-08T04:52:49.779Z,2.98
2023-01-08T04:53:51.661Z,2.99
2023-01-08T04:54:53.492Z,2.94
2023-01-08T04:55:55.320Z,2.95
2023-01-08T04:56:57.167Z,2.93
2023-01-08T04:57:59.093Z,2.93
2023-01-08T04:59:00.936Z,2.94
2023-01-08T05:00:02.778Z,2.96
2023-01-08T05:01:21.294Z,2.96
2023-01-08T05:02:23.433Z,2.99
2023-01-08T05:03:25.467Z,3.04
2023-01-08T05:04:27.420Z,3.04
2023-01-08T05:05:29.229Z,2.99
2023-01-08T05:06:31.993Z,2.92
2023-01-08T05:07:33.834Z,2.85
2023-01-08T05:08:36.115Z,2.84
2023-01-08T05:09:37.979Z,2.72
2023-01-08T05:10:39.903Z,2.63
2023-01-08T05:11:43.459Z,2.54
2023-01-08T05:12:45.242Z,2.43
2023-01-08T05:13:50.361Z,2.37
2023-01-08T05:14:52.274Z,2.37
2023-01-08T05:15:54.105Z,2.31
2023-01-08T05:16:55.945Z,2.38
2023-01-08T05:17:58.926Z,2.44
2023-01-08T05:19:00.688Z,2.48
2023-01-08T05:20:02.571Z,2.47
2023-01-08T05:21:05.631Z,2.47
2023-01-08T05:22:07.483Z,2.46
2023-01-08T05:23:09.343Z,2.49
2023-01-08T05:24:11.197Z,2.43
2023-01-08T05:25:13.131Z,2.34
2023-01-08T05:26:15.536Z,2.31
2023-01-08T05:27:17.630Z,2.29
2023-01-08T05:28:19.510Z,2.27
2023-01-08T05:29:21.399Z,2.24
2023-01-08T05:30:23.209Z,2.21
2023-01-08T05:31:25.089Z,2.24
2023-01-08T05:32:26.973Z,2.26
2023-01-08T05:33:28.893Z,2.23
2023-01-08T05:34:30.748Z,2.18
2023-01-08T05:35:32.648Z,2.13
2023-01-08T05:36:34.476Z,2.08
2023-01-08T05:37:36.878Z,2.13
2023-01-08T05:38:39.251Z,2.15
2023-01-08T05:39:41.052Z,2.20
2023-01-08T05:40:42.912Z,2.25
2023-01-08T05:41:44.778Z,2.29
2023-01-08T05:42:46.661Z,2.29
2023-01-08T05:43:48.646Z,2.26
2023-01-08T05:44:50.490Z,2.22
2023-01-08T05:45:52.546Z,2.25
2023-01-08T05:46:54.518Z,2.29
2023-01-08T05:47:56.432Z,2.24
2023-01-08T05:48:58.316Z,2.24
2023-01-08T05:50:00.227Z,2.29
2023-01-08T05:51:02.223Z,2.34
2023-01-08T05:52:04.089Z,2.37
2023-01-08T05:53:09.478Z,2.38
2023-01-08T05:54:11.317Z,2.35
2023-01-08T05:55:13.171Z,2.39
2023-01-08T05:56:15.236Z,2.40
2023-01-08T05:57:17.091Z,2.43
2023-01-08T05:58:19.480Z,2.45
2023-01-08T05:59:21.352Z,2.51
2023-01-08T06:00:24.671Z,2.49
2023-01-08T06:01:26.665Z,2.47
2023-01-08T06:02:28.451Z,2.49
2023-01-08T06:03:30.245Z,2.51
2023-01-08T06:04:32.189Z,2.55
2023-01-08T06:05:34.046Z,2.55
2023-01-08T06:06:35.839Z,2.53
2023-01-08T06:07:37.666Z,2.53
2023-01-08T06:08:39.853Z,2.53
2023-01-08T06:09:41.755Z,2.52
2023-01-08T06:10:43.592Z,2.46
2023-01-08T06:11:45.430Z,2.38
2023-01-08T06:12:47.312Z,2.42
2023-01-08T06:13:49.151Z,2.47
2023-01-08T06:14:51.066Z,2.43
2023-01-08T06:15:53.151Z,2.42
2023-01-08T06:16:54.986Z,2.44
2023-01-08T06:17:57.518Z,2.40
2023-01-08T06:18:59.292Z,2.32
2023-01-08T06:20:01.232Z,2.35
2023-01-08T06:21:03.066Z,2.33
2023-01-08T06:22:05.107Z,2.34
2023-01-08T06:23:08.958Z,2.35
2023-01-08T06:24:10.925Z,2.32
2023-01-08T06:25:13.315Z,2.31
2023-01-08T06:26:15.173Z,2.31
2023-01-08T06:27:17.066Z,2.37
2023-01-08T06:28:18.894Z,2.43
2023-01-08T06:29:20.756Z,2.48
2023-01-08T06:30:22.873Z,2.55
2023-01-08T06:31:24.718Z,2.59
2023-01-08T06:32:26.479Z,2.64
2023-01-08T06:33:28.818Z,2.67
2023-01-08T06:34:30.720Z,2.69
2023-01-08T06:35:32.607Z,2.73
2023-01-08T06:36:34.485Z,2.76
2023-01-08T06:37:36.317Z,2.76
2023-01-08T06:38:38.030Z,2.71
2023-01-08T06:39:39.831Z,2.74
2023-01-08T06:40:41.785Z,2.76
2023-01-08T06:41:44.619Z,2.75
2023-01-08T06:42:46.706Z,2.77
2023-01-08T06:43:48.528Z,2.84
2023-01-08T06:44:50.340Z,2.85
2023-01-08T06:45:55.536Z,2.88
2023-01-08T06:46:57.325Z,2.88
2023-01-08T06:48:02.734Z,2.90
2023-01-08T06:49:04.541Z,2.89
2023-01-08T06:50:07.275Z,2.90
2023-01-08T06:51:09.147Z,2.91
2023-01-08T06:52:11.290Z,2.88
2023-01-08T06:53:13.107Z,2.89
2023-01-08T06:54:14.927Z,2.91
2023-01-08T06:55:16.744Z,2.91
2023-01-08T06:56:18.622Z,2.90
2023-01-08T06:57:20.527Z,2.91
2023-01-08T06:58:22.917Z,2.92
2023-01-08T06:59:24.857Z,2.93
2023-01-08T07:00:27.533Z,2.91
2023-01-08T07:01:29.532Z,2.92
2023-01-08T07:02:31.520Z,2.95
2023-01-08T07:03:33.536Z,2.90
2023-01-08T07:04:35.446Z,2.86
2023-01-08T07:05:37.339Z,2.79
2023-01-08T07:06:39.292Z,2.77
2023-01-08T07:07:41.213Z,2.79
2023-01-08T07:08:43.759Z,2.83
2023-01-08T07:09:45.651Z,2.82
2023-01-08T07:10:47.459Z,2.72
2023-01-08T07:11:49.352Z,2.70
2023-01-08T07:12:51.179Z,2.75
2023-01-08T07:13:53.082Z,2.75
2023-01-08T07:14:54.840Z,2.71
2023-01-08T07:15:56.767Z,2.75
2023-01-08T07:16:58.678Z,2.77
2023-01-08T07:18:00.446Z,2.79
2023-01-08T07:19:02.338Z,2.84
2023-01-08T07:20:04.319Z,2.79
2023-01-08T07:21:06.889Z,2.70
2023-01-08T07:22:08.827Z,2.67
2023-01-08T07:23:11.130Z,2.58
2023-01-08T07:24:13.054Z,2.60
2023-01-08T07:25:14.902Z,2.48
2023-01-08T07:26:16.838Z,2.46
2023-01-08T07:27:19.466Z,2.48
2023-01-08T07:28:21.274Z,2.49
2023-01-08T07:29:23.203Z,2.50
2023-01-08T07:30:30.221Z,2.51
2023-01-08T07:31:32.529Z,2.53
2023-01-08T07:32:34.433Z,2.53
2023-01-08T07:33:36.354Z,2.45
2023-01-08T07:34:38.215Z,2.46
2023-01-08T07:35:40.063Z,2.42
2023-01-08T07:36:41.908Z,2.43
2023-01-08T07:37:43.918Z,2.48
2023-01-08T07:38:45.688Z,2.50
2023-01-08T07:39:47.531Z,2.50
2023-01-08T07:40:49.547Z,2.48
2023-01-08T07:41:51.314Z,2.49
2023-01-08T07:43:03.686Z,2.43
2023-01-08T07:44:05.567Z,2.31
2023-01-08T07:45:08.516Z,2.37
2023-01-08T07:46:10.824Z,2.42
2023-01-08T07:47:12.582Z,2.40
2023-01-08T07:48:18.104Z,2.39
2023-01-08T07:49:19.958Z,2.42
2023-01-08T07:50:21.841Z,2.44
2023-01-08T07:51:23.826Z,2.49
2023-01-08T07:52:27.779Z,2.51
2023-01-08T07:53:29.818Z,2.55
2023-01-08T07:54:31.668Z,2.56
2023-01-08T07:55:33.550Z,2.60
2023-01-08T07:56:35.362Z,2.66
2023-01-08T07:57:37.369Z,2.70
2023-01-08T07:58:39.343Z,2.75
2023-01-08T07:59:41.245Z,2.80
2023-01-08T08:00:43.044Z,2.80
2023-01-08T08:01:45.052Z,2.80
2023-01-08T08:02:47.081Z,2.85
2023-01-08T08:03:48.985Z,2.87
2023-01-08T08:04:51.070Z,2.91
2023-01-08T08:05:53.181Z,2.94
2023-01-08T08:06:55.589Z,2.96
2023-01-08T08:07:57.497Z,2.91
2023-01-08T08:09:00.264Z,2.92
2023-01-08T08:10:02.908Z,2.96
2023-01-08T08:11:04.899Z,2.98
2023-01-08T08:12:06.854Z,3.00
2023-01-08T08:13:09.091Z,3.05
2023-01-08T08:14:10.876Z,3.03
2023-01-08T08:15:12.738Z,2.99
2023-01-08T08:16:14.651Z,2.90
2023-01-08T08:17:16.578Z,2.88
2023-01-08T08:18:18.433Z,2.86
2023-01-08T08:19:20.620Z,2.86
2023-01-08T08:20:22.458Z,2.91
2023-01-08T08:21:24.420Z,2.95
2023-01-08T08:22:26.790Z,2.89
2023-01-08T08:23:28.761Z,2.89
2023-01-08T08:24:30.654Z,2.88
2023-01-08T08:25:32.480Z,2.90
2023-01-08T08:26:34.331Z,2.90
2023-01-08T08:27:36.355Z,2.79
2023-01-08T08:28:38.193Z,2.76
2023-01-08T08:29:39.988Z,2.76
2023-01-08T08:30:42.769Z,2.77
2023-01-08T08:31:44.789Z,2.76
2023-01-08T08:32:46.690Z,2.74
2023-01-08T08:33:48.543Z,2.74
2023-01-08T08:34:51.122Z,2.73
2023-01-08T08:35:52.885Z,2.73
2023-01-08T08:36:54.703Z,2.73
2023-01-08T08:37:57.313Z,2.77
2023-01-08T08:38:59.172Z,2.85
2023-01-08T08:40:01.026Z,2.89
2023-01-08T08:41:02.907Z,2.86
2023-01-08T08:42:04.841Z,2.78
2023-01-08T08:43:06.662Z,2.79
2023-01-08T08:44:08.774Z,2.83
2023-01-08T08:45:10.660Z,2.79
2023-01-08T08:46:12.575Z,2.79
2023-01-08T08:47:15.013Z,2.70
2023-01-08T08:48:17.260Z,2.60
2023-01-08T08:49:19.078Z,2.65
2023-01-08T08:50:21.544Z,2.65
2023-01-08T08:51:23.406Z,2.73
2023-01-08T08:52:25.197Z,2.70
2023-01-08T08:53:27.769Z,2.66
2023-01-08T08:54:29.715Z,2.72
2023-01-08T08:55:31.548Z,2.77
2023-01-08T08:56:33.545Z,2.80
2023-01-08T08:57:35.399Z,2.85
2023-01-08T08:58:37.247Z,2.87
2023-01-08T08:59:39.070Z,2.89
2023-01-08T09:00:41.752Z,2.90
2023-01-08T09:01:43.695Z,2.88
2023-01-08T09:02:45.791Z,2.85
2023-01-08T09:03:47.686Z,2.84
2023-01-08T09:04:49.512Z,2.87
2023-01-08T09:05:51.376Z,2.87
2023-01-08T09:06:53.282Z,2.91
2023-01-08T09:07:55.183Z,2.93
2023-01-08T09:08:57.042Z,2.92
2023-01-08T09:09:58.903Z,2.94
2023-01-08T09:11:02.605Z,2.97
2023-01-08T09:12:04.552Z,2.99
2023-01-08T09:13:06.505Z,3.07
2023-01-08T09:14:08.350Z,3.04
2023-01-08T09:15:10.363Z,3.05
2023-01-08T09:16:12.242Z,3.07
2023-01-08T09:17:14.087Z,3.09
2023-01-08T09:18:16.156Z,3.11
2023-01-08T09:19:18.126Z,3.16
2023-01-08T09:20:20.016Z,3.19
2023-01-08T09:21:21.945Z,3.20
2023-01-08T09:22:23.823Z,3.22
2023-01-08T09:23:25.758Z,3.27
2023-01-08T09:24:27.582Z,3.27
2023-01-08T09:25:30.275Z,3.27
2023-01-08T09:26:32.173Z,3.28
2023-01-08T09:27:34.082Z,3.26
2023-01-08T09:28:35.893Z,3.25
2023-01-08T09:29:37.710Z,3.23
2023-01-08T09:30:40.088Z,3.22
2023-01-08T09:31:41.955Z,3.25
2023-01-08T09:32:43.912Z,3.28
2023-01-08T09:33:47.726Z,3.30
2023-01-08T09:34:49.543Z,3.32
2023-01-08T09:35:51.394Z,3.32
2023-01-08T09:36:53.194Z,3.35
2023-01-08T09:37:56.165Z,3.32
2023-01-08T09:38:58.002Z,3.28
2023-01-08T09:40:02.551Z,3.27
2023-01-08T09:41:08.045Z,3.30
2023-01-08T09:42:12.160Z,3.35
2023-01-08T09:43:21.378Z,3.32
2023-01-08T09:44:26.736Z,3.35
2023-01-08T09:45:30.292Z,3.36
2023-01-08T09:46:32.344Z,3.38
2023-01-08T09:47:43.453Z,3.44
2023-01-08T09:48:45.820Z,3.48
2023-01-08T09:49:48.388Z,3.50
2023-01-08T09:50:50.457Z,3.50
2023-01-08T09:51:52.642Z,3.51
2023-01-08T09:52:55.329Z,3.50
2023-01-08T09:53:58.054Z,3.46
2023-01-08T09:55:02.803Z,3.47
2023-01-08T09:56:10.904Z,3.47
2023-01-08T09:57:20.834Z,3.45
2023-01-08T09:58:50.828Z,3.47
2023-01-08T09:59:52.778Z,3.44
2023-01-08T10:00:54.746Z,3.49
2023-01-08T10:01:56.655Z,3.51
2023-01-08T10:02:58.675Z,3.52
2023-01-08T10:04:04.703Z,3.53
2023-01-08T10:05:11.901Z,3.50
2023-01-08T10:06:14.867Z,3.45
2023-01-08T10:07:24.799Z,3.43
2023-01-08T10:08:26.638Z,3.45
2023-01-08T10:09:29.916Z,3.47
2023-01-08T10:10:32.847Z,3.47
2023-01-08T10:11:42.617Z,3.46
2023-01-08T10:12:44.614Z,3.48
2023-01-08T10:13:57.380Z,3.48
2023-01-08T10:15:03.765Z,3.49
2023-01-08T10:16:10.565Z,3.51
2023-01-08T10:17:21.389Z,3.56
2023-01-08T10:18:25.762Z,3.56
2023-01-08T10:19:27.509Z,3.56
2023-01-08T10:20:29.913Z,3.54
2023-01-08T10:21:33.479Z,3.55
2023-01-08T10:22:35.489Z,3.59
2023-01-08T10:23:37.429Z,3.61
2023-01-08T10:24:39.999Z,3.60
2023-01-08T10:26:07.834Z,3.60
2023-01-08T10:27:17.501Z,3.62
2023-01-08T10:28:23.976Z,3.66
2023-01-08T10:29:25.899Z,3.68
2023-01-08T10:30:33.565Z,3.73
2023-01-08T10:31:39.495Z,3.76
2023-01-08T10:32:47.673Z,3.76
2023-01-08T10:33:50.080Z,3.75
2023-01-08T10:34:56.233Z,3.78
2023-01-08T10:36:00.461Z,3.80
2023-01-08T10:37:14.173Z,3.81
2023-01-08T10:38:26.115Z,3.84
2023-01-08T10:39:29.990Z,3.84
2023-01-08T10:40:34.792Z,3.84
2023-01-08T10:41:40.626Z,3.85
2023-01-08T10:42:42.640Z,3.88
2023-01-08T10:44:03.726Z,3.89
2023-01-08T10:45:08.106Z,3.84
2023-01-08T10:46:15.243Z,3.77
2023-01-08T10:47:18.409Z,3.69
2023-01-08T10:48:20.847Z,3.69
2023-01-08T10:49:43.993Z,3.74
2023-01-08T10:50:45.884Z,3.78
2023-01-08T10:51:53.801Z,3.82
2023-01-08T10:52:57.213Z,3.85
2023-01-08T10:54:01.352Z,3.85
2023-01-08T10:55:32.260Z,3.90
2023-01-08T10:56:41.764Z,3.95
2023-01-08T10:57:52.791Z,3.97
2023-01-08T10:58:55.275Z,3.98
2023-01-08T10:59:57.245Z,3.96
2023-01-08T11:01:20.210Z,3.91
2023-01-08T11:02:38.276Z,3.95
2023-01-08T11:03:41.029Z,3.96
2023-01-08T11:04:43.902Z,3.95
2023-01-08T11:05:46.287Z,3.95
2023-01-08T11:06:48.451Z,3.94
2023-01-08T11:07:56.394Z,3.95
2023-01-08T11:09:00.217Z,3.96
2023-01-08T11:10:02.905Z,3.94
2023-01-08T11:11:06.780Z,3.98
2023-01-08T11:12:27.207Z,3.99
2023-01-08T11:13:29.803Z,4.03
2023-01-08T11:14:35.338Z,4.07
2023-01-08T11:15:43.874Z,4.12
2023-01-08T11:16:46.934Z,4.17
2023-01-08T11:17:48.878Z,4.17
2023-01-08T11:18:52.033Z,4.13
2023-01-08T11:19:55.795Z,4.10
2023-01-08T11:21:08.786Z,4.11
2023-01-08T11:22:21.655Z,4.11
2023-01-08T11:23:25.116Z,4.11
2023-01-08T11:24:37.158Z,4.11
2023-01-08T11:25:41.017Z,4.11
2023-01-08T11:26:46.264Z,4.10
2023-01-08T11:27:48.767Z,4.12
2023-01-08T11:28:53.679Z,4.15
2023-01-08T11:30:18.782Z,4.17
2023-01-08T11:31:46.922Z,4.14
2023-01-08T11:33:10.037Z,4.15
2023-01-08T11:34:32.078Z,4.17
2023-01-08T11:35:39.556Z,4.17
2023-01-08T11:36:47.274Z,4.19
2023-01-08T11:38:00.236Z,4.18
2023-01-08T11:39:02.664Z,4.19
2023-01-08T11:40:11.829Z,4.15
2023-01-08T11:41:24.146Z,4.19
2023-01-08T11:42:41.911Z,4.26
2023-01-08T11:43:43.694Z,4.32
2023-01-08T11:44:57.400Z,4.40
2023-01-08T11:46:14.952Z,4.40
2023-01-08T11:47:31.883Z,4.37
2023-01-08T11:48:48.084Z,4.37
2023-01-08T11:50:05.481Z,4.39
2023-01-08T11:51:09.982Z,4.41
2023-01-08T11:52:14.299Z,4.43
2023-01-08T11:53:21.706Z,4.41
2023-01-08T11:54:26.660Z,4.39
2023-01-08T11:55:32.520Z,4.43
2023-01-08T11:56:36.879Z,4.44
2023-01-08T11:57:53.880Z,4.42
2023-01-08T11:59:13.500Z,4.40
2023-01-08T12:00:24.854Z,4.41
2023-01-08T12:01:35.101Z,4.32
2023-01-08T12:02:39.429Z,4.38
2023-01-08T12:03:47.363Z,4.44
2023-01-08T12:05:00.911Z,4.45
2023-01-08T12:06:13.840Z,4.41
2023-01-08T12:07:21.304Z,4.44
2023-01-08T12:08:28.997Z,4.48
2023-01-08T12:09:40.295Z,4.52
2023-01-08T12:10:45.083Z,4.51
2023-01-08T12:11:50.017Z,4.48
2023-01-08T12:12:58.024Z,4.48
2023-01-08T12:14:06.687Z,4.52
2023-01-08T12:15:26.986Z,4.55
2023-01-08T12:16:52.572Z,4.63
2023-01-08T12:18:05.036Z,4.65
2023-01-08T12:19:25.793Z,4.68
2023-01-08T12:20:30.116Z,4.74
2023-01-08T12:21:33.331Z,4.65
2023-01-08T12:22:47.376Z,4.70
2023-01-08T12:23:52.465Z,4.77
2023-01-08T12:25:13.090Z,4.79
2023-01-08T12:26:33.540Z,4.87
2023-01-08T12:27:55.825Z,4.91
2023-01-08T12:28:57.118Z,4.93
2023-01-08T12:30:06.669Z,4.93
2023-01-08T12:31:21.893Z,4.93
2023-01-08T12:32:27.537Z,4.97
2023-01-08T12:33:42.738Z,5.05
2023-01-08T12:35:01.820Z,5.11
2023-01-08T12:36:06.925Z,5.16
2023-01-08T12:37:15.045Z,5.19
2023-01-08T12:38:24.509Z,5.20
2023-01-08T12:39:31.590Z,5.28
2023-01-08T12:40:40.425Z,5.33
2023-01-08T12:41:43.834Z,5.37
2023-01-08T12:42:50.288Z,5.41
2023-01-08T12:44:01.377Z,5.48
2023-01-08T12:45:04.694Z,5.49
2023-01-08T12:46:07.020Z,5.51
2023-01-08T12:47:13.903Z,5.58
2023-01-08T12:48:17.145Z,5.66
2023-01-08T12:49:26.191Z,5.72
2023-01-08T12:50:35.063Z,5.77
2023-01-08T12:51:53.775Z,5.77
2023-01-08T12:52:55.536Z,5.86
2023-01-08T12:54:15.834Z,5.95
2023-01-08T12:55:27.828Z,6.06
2023-01-08T12:57:03.253Z,6.18
2023-01-08T12:58:30.778Z,6.18
2023-01-08T12:59:51.404Z,6.17
2023-01-08T13:01:13.600Z,6.24
2023-01-08T13:02:41.536Z,6.34
2023-01-08T13:03:44.049Z,6.50
2023-01-08T13:04:47.264Z,6.58
2023-01-08T13:05:49.614Z,6.65
2023-01-08T13:06:57.333Z,6.77
2023-01-08T13:08:01.143Z,6.89
2023-01-08T13:09:03.280Z,6.97
2023-01-08T13:10:09.507Z,7.01
2023-01-08T13:11:11.367Z,7.08
2023-01-08T13:12:14.904Z,7.12
2023-01-08T13:13:33.420Z,7.17
2023-01-08T13:14:47.332Z,7.25
2023-01-08T13:15:49.291Z,7.27
2023-01-08T13:17:11.215Z,7.23
2023-01-08T13:18:18.201Z,7.30
2023-01-08T13:19:27.870Z,7.35
2023-01-08T13:20:30.886Z,7.39
2023-01-08T13:21:34.981Z,7.39
2023-01-08T13:22:37.626Z,7.15
2023-01-08T13:23:39.725Z,7.11
2023-01-08T13:24:42.985Z,7.12
2023-01-08T13:25:52.647Z,7.20
2023-01-08T13:26:54.628Z,7.22
2023-01-08T13:27:56.656Z,7.14
2023-01-08T13:29:08.895Z,7.19
2023-01-08T13:30:30.792Z,7.19
2023-01-08T13:31:39.332Z,7.17
2023-01-08T13:32:59.182Z,7.29
2023-01-08T13:34:00.878Z,7.34
2023-01-08T13:35:02.573Z,7.39
2023-01-08T13:36:24.227Z,7.37
2023-01-08T13:37:27.929Z,7.17
2023-01-08T13:38:29.895Z,7.07
2023-01-08T13:39:33.922Z,7.01
2023-01-08T13:40:44.656Z,7.03
2023-01-08T13:41:57.865Z,6.93
2023-01-08T13:43:00.143Z,6.84
2023-01-08T13:44:05.345Z,6.81
2023-01-08T13:45:07.757Z,6.74
2023-01-08T13:46:20.186Z,6.75
2023-01-08T13:47:25.069Z,6.81
2023-01-08T13:48:29.884Z,6.76
2023-01-08T13:49:51.948Z,6.67
2023-01-08T13:50:53.948Z,6.64
2023-01-08T13:51:56.025Z,6.65
2023-01-08T13:52:59.189Z,6.62
2023-01-08T13:54:07.007Z,6.63
2023-01-08T13:55:14.873Z,6.66
2023-01-08T13:56:16.729Z,6.66
2023-01-08T13:57:20.779Z,6.67
2023-01-08T13:58:26.294Z,6.57
2023-01-08T13:59:33.173Z,6.50
2023-01-08T14:00:55.371Z,6.44
2023-01-08T14:01:58.185Z,6.41
2023-01-08T14:03:00.162Z,6.36
2023-01-08T14:04:02.145Z,6.27
2023-01-08T14:05:12.958Z,6.16
2023-01-08T14:06:17.644Z,6.13
2023-01-08T14:07:19.905Z,6.08
2023-01-08T14:08:24.780Z,6.04
2023-01-08T14:09:26.636Z,6.04
2023-01-08T14:10:29.659Z,6.04
2023-01-08T14:11:31.466Z,6.03
2023-01-08T14:12:34.432Z,5.97
2023-01-08T14:13:38.303Z,5.95
2023-01-08T14:14:40.866Z,5.97
2023-01-08T14:15:42.737Z,6.03
2023-01-08T14:16:45.300Z,6.10
2023-01-08T14:17:47.502Z,6.04
2023-01-08T14:18:50.213Z,5.86
2023-01-08T14:19:52.177Z,5.77